Time;durP1;ratioP1;P1;durP2;ratioP2;P2;SDS_P1;SDS_P2;PMS_P1;PMS_P2;Temp;Humidity;BMP_temperature;BMP_pressure;BME280_temperature;BME280_humidity;BME280_pressure;Samples;Min_cycle;Max_cycle;Signal;HPM_P1;HPM_P2
2021/03/10 00:00:28;;;;;;;31.55;11.77;;;;;;;20.04;13.32;98418.16;5071450;28;20049;-84
2021/03/10 00:02:54;;;;;;;31.85;13.00;;;;;;;19.66;13.59;98419.75;5071708;28;21107;-85
2021/03/10 00:05:21;;;;;;;32.53;13.45;;;;;;;19.58;13.73;98420.91;5073496;28;20037;-85
2021/03/10 00:07:47;;;;;;;29.88;11.98;;;;;;;19.84;13.54;98414.97;5073802;28;20062;-84
2021/03/10 00:10:14;;;;;;;30.38;11.70;;;;;;;19.97;13.35;98420.97;5071576;28;20107;-84
2021/03/10 00:12:41;;;;;;;31.70;12.45;;;;;;;20.19;13.23;98418.94;5073642;28;20070;-85
2021/03/10 00:15:10;;;;;;;26.42;10.35;;;;;;;20.47;13.09;98422.53;5073040;28;20036;-85
2021/03/10 00:17:37;;;;;;;28.42;12.85;;;;;;;19.85;13.36;98415.78;5074516;28;20119;-85
2021/03/10 00:20:05;;;;;;;30.77;13.48;;;;;;;19.33;13.87;98420.03;5073836;28;20067;-84
2021/03/10 00:22:31;;;;;;;32.42;13.85;;;;;;;18.96;14.05;98420.31;5073568;28;20036;-84
2021/03/10 00:24:57;;;;;;;30.48;13.30;;;;;;;19.00;14.08;98423.09;5073257;28;20041;-84
2021/03/10 00:27:24;;;;;;;32.47;12.43;;;;;;;19.32;13.72;98419.22;5068762;28;20519;-84
2021/03/10 00:29:55;;;;;;;28.83;13.20;;;;;;;19.55;13.68;98418.13;5071976;28;20032;-84
2021/03/10 00:32:23;;;;;;;33.78;13.98;;;;;;;19.97;13.44;98418.97;5072962;28;20499;-84
2021/03/10 00:34:49;;;;;;;35.30;13.02;;;;;;;20.17;13.08;98422.13;5073227;28;20021;-84
2021/03/10 00:37:16;;;;;;;33.47;14.65;;;;;;;20.11;13.17;98415.38;5069701;28;20032;-85
2021/03/10 00:39:43;;;;;;;40.08;14.57;;;;;;;19.86;13.61;98420.94;5073812;28;20036;-84
2021/03/10 00:42:10;;;;;;;34.13;15.52;;;;;;;19.76;13.47;98415.38;5072374;28;20031;-85
2021/03/10 00:44:36;;;;;;;42.15;17.20;;;;;;;19.77;13.68;98414.97;5073175;28;20120;-84
2021/03/10 00:47:02;;;;;;;38.05;16.17;;;;;;;19.75;13.69;98409.00;5072550;28;20028;-84
2021/03/10 00:49:28;;;;;;;41.53;15.30;;;;;;;20.04;13.47;98409.00;5064060;28;20029;-84
2021/03/10 00:51:54;;;;;;;38.90;16.02;;;;;;;20.41;13.27;98398.25;5068073;28;20068;-84
2021/03/10 00:54:20;;;;;;;40.55;17.38;;;;;;;20.53;13.23;98401.41;5071606;28;20029;-85
2021/03/10 00:56:47;;;;;;;41.20;17.25;;;;;;;20.35;13.27;98395.06;5072143;28;20021;-85
2021/03/10 00:59:13;;;;;;;36.92;17.40;;;;;;;20.11;13.50;98395.88;5068783;28;20076;-85
2021/03/10 01:01:39;;;;;;;45.58;18.60;;;;;;;19.99;13.44;98405.44;5072444;28;20400;-85
2021/03/10 01:04:05;;;;;;;37.45;17.77;;;;;;;19.88;13.52;98390.69;5071702;28;20032;-85
2021/03/10 01:06:31;;;;;;;35.95;15.82;;;;;;;19.97;13.47;98399.47;5078807;28;20039;-84
2021/03/10 01:08:57;;;;;;;32.80;15.60;;;;;;;20.29;13.35;98395.88;5072297;28;20515;-84
2021/03/10 01:11:23;;;;;;;45.20;19.90;;;;;;;20.34;13.43;98393.47;5072180;28;20162;-85
2021/03/10 01:13:50;;;;;;;38.80;16.45;;;;;;;20.39;13.39;98389.47;5071659;28;20032;-84
2021/03/10 01:16:16;;;;;;;46.95;18.77;;;;;;;20.60;12.96;98390.22;5072272;28;20047;-84
2021/03/10 01:18:43;;;;;;;39.42;16.20;;;;;;;20.68;12.95;98380.63;5071293;28;20082;-84
2021/03/10 01:21:09;;;;;;;31.08;14.07;;;;;;;20.78;12.82;98379.00;5071343;28;20024;-84
2021/03/10 01:23:35;;;;;;;42.50;18.38;;;;;;;20.74;12.82;98383.81;5072130;28;20033;-85
2021/03/10 01:26:01;;;;;;;41.05;18.10;;;;;;;20.10;13.81;98383.13;5071814;28;20064;-84
2021/03/10 01:28:27;;;;;;;39.15;17.23;;;;;;;19.76;13.84;98391.09;5072036;28;20051;-85
2021/03/10 01:30:53;;;;;;;41.42;17.80;;;;;;;19.66;13.89;98382.72;5071810;28;20029;-84
2021/03/10 01:33:19;;;;;;;48.17;20.02;;;;;;;19.51;13.92;98387.47;5071001;28;20035;-84
2021/03/10 01:35:45;;;;;;;40.38;15.38;;;;;;;19.43;13.96;98385.88;5071209;28;20028;-84
2021/03/10 01:38:12;;;;;;;45.63;20.42;;;;;;;19.65;14.13;98381.94;5070879;28;20455;-84
2021/03/10 01:40:38;;;;;;;42.45;17.98;;;;;;;19.54;14.24;98389.47;5069329;28;20044;-84
2021/03/10 01:43:05;;;;;;;49.10;19.83;;;;;;;19.49;14.34;98381.50;5071024;28;20082;-84
2021/03/10 01:45:32;;;;;;;42.75;17.15;;;;;;;19.77;14.16;98391.88;5070666;28;20017;-84
2021/03/10 01:48:00;;;;;;;46.25;19.23;;;;;;;19.52;13.80;98385.50;5069851;28;20037;-84
2021/03/10 01:50:29;;;;;;;40.92;15.27;;;;;;;19.42;13.78;98384.28;5071643;28;20040;-84
2021/03/10 01:52:56;;;;;;;46.33;16.92;;;;;;;19.78;13.78;98383.16;5063363;28;20094;-84
2021/03/10 01:55:24;;;;;;;44.25;16.92;;;;;;;19.84;13.49;98389.09;5070124;28;20052;-84
2021/03/10 01:57:50;;;;;;;45.28;18.52;;;;;;;19.94;13.40;98377.16;5070890;28;20028;-84
2021/03/10 02:00:18;;;;;;;41.35;17.58;;;;;;;19.93;13.33;98379.16;5069720;28;20052;-84
2021/03/10 02:02:45;;;;;;;41.72;18.35;;;;;;;19.91;13.30;98375.97;5062548;28;20029;-85
2021/03/10 02:05:17;;;;;;;46.05;18.20;;;;;;;19.85;13.30;98372.00;5068567;28;20047;-85
2021/03/10 02:08:06;;;;;;;41.67;16.23;;;;;;;19.48;13.86;98373.56;5070186;28;20496;-84
2021/03/10 02:10:52;;;;;;;43.88;16.60;;;;;;;19.70;13.38;98375.16;5067559;28;20089;-84
2021/03/10 02:13:32;;;;;;;48.70;19.40;;;;;;;19.04;14.17;98380.19;5069046;28;20036;-84
2021/03/10 02:16:26;;;;;;;54.42;19.30;;;;;;;18.50;14.37;98391.50;5068430;28;20067;-84
2021/03/10 02:19:17;;;;;;;39.63;15.52;;;;;;;18.88;14.29;98385.31;5069922;28;20041;-84
2021/03/10 02:22:03;;;;;;;44.05;15.32;;;;;;;19.03;14.27;98388.94;5070849;28;20037;-84
2021/03/10 02:24:48;;;;;;;41.40;16.05;;;;;;;19.39;14.09;98385.09;5068668;28;20043;-84
2021/03/10 02:27:50;;;;;;;43.95;16.42;;;;;;;19.40;13.75;98386.69;5063421;28;20036;-84
2021/03/10 02:30:36;;;;;;;41.47;16.30;;;;;;;19.53;13.61;98382.34;5067173;28;20071;-84
2021/03/10 02:33:10;;;;;;;43.92;17.38;;;;;;;19.28;13.66;98387.00;5070833;28;20085;-84
2021/03/10 02:35:40;;;;;;;39.17;15.65;;;;;;;19.33;13.39;98392.19;5070860;28;20479;-84
2021/03/10 02:38:08;;;;;;;40.63;14.88;;;;;;;19.38;13.21;98389.06;5066442;28;20089;-84
2021/03/10 02:40:38;;;;;;;40.80;15.85;;;;;;;19.38;13.26;98394.63;5071376;28;20029;-84
2021/03/10 02:43:05;;;;;;;46.17;17.88;;;;;;;19.21;13.42;98395.34;5067526;28;20028;-84
2021/03/10 02:45:32;;;;;;;54.08;19.88;;;;;;;18.53;13.86;98396.25;5074719;28;20100;-84
2021/03/10 02:48:01;;;;;;;46.47;18.20;;;;;;;18.09;14.03;98396.34;5072050;28;20106;-84
2021/03/10 02:50:28;;;;;;;45.22;16.25;;;;;;;18.20;14.14;98391.69;5073691;28;20066;-84
2021/03/10 02:52:56;;;;;;;37.70;15.30;;;;;;;18.22;14.18;98391.28;5070883;28;20024;-84
2021/03/10 02:55:22;;;;;;;40.22;15.20;;;;;;;18.63;13.87;98396.34;5074305;28;20033;-84
2021/03/10 02:57:49;;;;;;;45.88;17.67;;;;;;;18.70;13.91;98403.09;5072059;28;20048;-85
2021/03/10 03:00:20;;;;;;;37.95;15.10;;;;;;;18.90;13.19;98394.06;5074186;28;20091;-84
2021/03/10 03:02:46;;;;;;;42.53;17.52;;;;;;;19.17;13.27;98392.56;5071216;28;20024;-84
2021/03/10 03:05:13;;;;;;;36.47;14.60;;;;;;;19.09;13.04;98392.94;5072732;28;20036;-84
2021/03/10 03:07:41;;;;;;;33.05;12.93;;;;;;;19.16;12.88;98396.53;5072976;28;20029;-84
2021/03/10 03:10:10;;;;;;;35.03;12.48;;;;;;;19.21;13.00;98398.94;5069583;28;20187;-84
2021/03/10 03:12:41;;;;;;;34.78;14.13;;;;;;;18.72;13.27;98397.97;5072605;28;20115;-84
2021/03/10 03:15:09;;;;;;;28.30;10.68;;;;;;;18.65;13.07;98392.38;5072585;28;20045;-84
2021/03/10 03:17:36;;;;;;;36.47;12.25;;;;;;;18.84;13.01;98403.16;5066897;28;20047;-84
2021/03/10 03:20:05;;;;;;;31.38;13.15;;;;;;;18.74;13.17;98390.81;5074296;28;20124;-84
2021/03/10 03:22:32;;;;;;;28.90;12.00;;;;;;;18.46;13.40;98390.69;5071205;28;20404;-84
2021/03/10 03:24:59;;;;;;;28.75;12.00;;;;;;;18.59;13.60;98391.94;5071995;28;20119;-84
2021/03/10 03:27:26;;;;;;;37.30;16.73;;;;;;;18.21;14.02;98387.72;5073028;28;20060;-84
2021/03/10 03:29:57;;;;;;;36.55;15.43;;;;;;;18.30;14.08;98401.25;5073382;28;20186;-84
2021/03/10 03:32:25;;;;;;;;;;;;;;;17.93;14.44;98402.19;5072813;28;20039;-84
2021/03/10 03:34:51;;;;;;;42.00;16.77;;;;;;;17.80;14.20;98398.13;5070745;28;20711;-84
2021/03/10 03:37:17;;;;;;;35.83;14.00;;;;;;;18.13;13.81;98396.41;5070439;28;20040;-84
2021/03/10 03:39:44;;;;;;;36.95;15.05;;;;;;;18.22;13.72;98403.22;5073245;28;20060;-85
2021/03/10 03:42:11;;;;;;;32.03;12.40;;;;;;;18.48;13.78;98393.88;5069852;28;20067;-84
2021/03/10 03:44:37;;;;;;;36.67;14.90;;;;;;;18.30;13.78;98402.06;5071604;28;20387;-84
2021/03/10 03:47:04;;;;;;;43.35;16.30;;;;;;;18.16;13.67;98396.41;5073187;28;20464;-84
2021/03/10 03:49:30;;;;;;;40.95;17.35;;;;;;;18.13;14.11;98393.63;5072123;28;20438;-84
2021/03/10 03:51:56;;;;;;;37.85;17.40;;;;;;;17.94;14.23;98401.03;5070959;28;20403;-85
2021/03/10 03:54:22;;;;;;;38.58;14.07;;;;;;;18.23;13.90;98399.22;5073145;28;20036;-85
2021/03/10 03:56:48;;;;;;;38.75;16.33;;;;;;;18.50;13.72;98394.28;5073187;28;20085;-85
2021/03/10 03:59:14;;;;;;;32.03;14.57;;;;;;;18.58;13.79;98401.44;5073269;28;20063;-84
2021/03/10 04:01:41;;;;;;;30.98;13.07;;;;;;;18.95;13.64;98398.47;5069099;28;20037;-85
2021/03/10 04:04:07;;;;;;;42.80;15.88;;;;;;;19.08;13.47;98397.72;5068772;28;20088;-85
2021/03/10 04:06:33;;;;;;;37.83;16.42;;;;;;;18.76;13.37;98405.16;5074222;28;20060;-85
2021/03/10 04:08:59;;;;;;;38.42;13.85;;;;;;;18.73;13.70;98405.09;5068511;28;20033;-85
2021/03/10 04:11:25;;;;;;;44.78;17.30;;;;;;;18.58;13.94;98405.03;5069254;28;20039;-85
2021/03/10 04:13:51;;;;;;;43.13;15.55;;;;;;;18.82;13.92;98411.91;5071260;28;20028;-85
2021/03/10 04:16:17;;;;;;;42.03;16.17;;;;;;;19.02;13.75;98410.38;5073393;28;20041;-85
2021/03/10 04:18:43;;;;;;;41.22;17.30;;;;;;;18.94;13.61;98396.84;5072100;28;20098;-85
2021/03/10 04:21:09;;;;;;;46.60;19.10;;;;;;;18.56;13.78;98410.19;5069337;28;20033;-85
2021/03/10 04:23:36;;;;;;;45.78;16.92;;;;;;;18.51;13.65;98405.00;5069885;28;20750;-85
2021/03/10 04:26:02;;;;;;;38.58;15.63;;;;;;;18.44;13.66;98398.56;5074234;28;20032;-85
2021/03/10 04:28:28;;;;;;;41.53;17.13;;;;;;;18.73;13.47;98410.69;5070742;28;20134;-84
2021/03/10 04:30:54;;;;;;;44.88;17.10;;;;;;;19.01;13.07;98417.16;5072230;28;20031;-85
2021/03/10 04:33:20;;;;;;;47.55;16.90;;;;;;;19.17;12.97;98406.47;5072567;28;20040;-85
2021/03/10 04:35:46;;;;;;;43.63;20.25;;;;;;;19.23;13.05;98404.09;5066687;28;20434;-84
2021/03/10 04:38:12;;;;;;;50.83;18.75;;;;;;;18.97;13.16;98401.66;5057259;28;20127;-85
2021/03/10 04:40:38;;;;;;;45.33;17.33;;;;;;;18.83;13.13;98413.53;5067783;28;20029;-84
2021/03/10 04:43:04;;;;;;;44.60;17.25;;;;;;;18.92;13.11;98402.81;5068461;28;20028;-84
2021/03/10 04:45:30;;;;;;;41.47;16.50;;;;;;;19.06;13.21;98399.28;5071395;28;20536;-85
2021/03/10 04:47:56;;;;;;;42.78;17.58;;;;;;;18.51;13.48;98409.75;5067280;28;20048;-85
2021/03/10 04:50:22;;;;;;;49.60;18.70;;;;;;;18.55;13.47;98405.03;5071287;28;20063;-85
2021/03/10 04:52:48;;;;;;;47.90;17.80;;;;;;;18.13;13.89;98404.72;5070867;28;20036;-85
2021/03/10 04:55:15;;;;;;;47.85;16.80;;;;;;;17.62;14.09;98396.38;5069700;28;20488;-85
2021/03/10 04:57:41;;;;;;;44.08;17.83;;;;;;;17.26;14.44;98403.53;5069385;28;20036;-85
2021/03/10 05:00:09;;;;;;;45.00;19.45;;;;;;;17.13;14.60;98400.22;5071521;28;20149;-85
2021/03/10 05:02:36;;;;;;;47.78;19.00;;;;;;;17.39;14.63;98402.06;5069744;28;20105;-85
2021/03/10 05:05:04;;;;;;;48.05;20.02;;;;;;;18.02;13.97;98407.41;5070136;28;20115;-85
2021/03/10 05:07:30;;;;;;;44.78;18.38;;;;;;;18.47;13.46;98412.53;5070433;28;20039;-85
2021/03/10 05:09:56;;;;;;;41.15;17.40;;;;;;;18.90;13.14;98415.53;5071902;28;20113;-85
2021/03/10 05:12:22;;;;;;;43.05;17.35;;;;;;;18.53;13.61;98412.94;5070972;28;20039;-85
2021/03/10 05:14:49;;;;;;;48.25;19.65;;;;;;;18.07;13.72;98418.19;5072279;28;20060;-85
2021/03/10 05:17:15;;;;;;;58.25;22.50;;;;;;;17.74;13.92;98426.63;5070877;28;20114;-85
2021/03/10 05:19:42;;;;;;;56.65;21.55;;;;;;;17.72;14.14;98424.25;5071265;28;20032;-85
2021/03/10 05:22:08;;;;;;;47.33;20.20;;;;;;;18.17;13.81;98428.59;5064850;28;20060;-85
2021/03/10 05:24:34;;;;;;;51.95;20.88;;;;;;;18.55;13.37;98422.50;5071063;28;20384;-85
2021/03/10 05:27:00;;;;;;;46.15;18.77;;;;;;;18.77;13.00;98422.59;5070567;28;20035;-85
2021/03/10 05:29:26;;;;;;;53.97;19.35;;;;;;;19.02;12.75;98415.19;5067642;28;20040;-85
2021/03/10 05:31:52;;;;;;;41.28;17.52;;;;;;;19.10;12.39;98412.03;5071179;28;20395;-85
2021/03/10 05:34:18;;;;;;;44.20;17.73;;;;;;;19.22;12.69;98416.44;5066354;28;20486;-85
2021/03/10 05:36:44;;;;;;;44.75;16.67;;;;;;;19.43;12.52;98413.75;5068990;28;20025;-84
2021/03/10 05:39:10;;;;;;;46.40;17.95;;;;;;;19.16;12.61;98421.56;5070108;28;20442;-85
2021/03/10 05:41:38;;;;;;;40.35;17.05;;;;;;;18.82;12.97;98428.59;5071779;28;20056;-85
2021/03/10 05:44:04;;;;;;;44.20;18.15;;;;;;;19.08;13.14;98425.53;5072480;28;20468;-85
2021/03/10 05:46:30;;;;;;;43.35;16.75;;;;;;;19.43;12.57;98424.06;5070447;28;20071;-84
2021/03/10 05:48:56;;;;;;;40.88;15.82;;;;;;;19.67;12.47;98420.53;5072505;28;20032;-85
2021/03/10 05:51:23;;;;;;;48.30;19.75;;;;;;;19.70;12.53;98428.88;5065958;28;20028;-84
2021/03/10 05:53:50;;;;;;;45.17;18.38;;;;;;;19.65;12.60;98434.06;5073457;28;20060;-85
2021/03/10 05:56:16;;;;;;;43.65;16.95;;;;;;;19.44;12.69;98434.81;5068492;28;20440;-85
2021/03/10 05:58:52;;;;;;;44.25;19.25;;;;;;;19.54;12.73;98442.41;5067285;28;20048;-86
2021/03/10 06:01:18;;;;;;;44.50;17.08;;;;;;;19.85;12.69;98447.22;5067417;28;20036;-86
2021/03/10 06:03:58;;;;;;;40.58;17.45;;;;;;;20.10;12.71;98438.88;5058972;28;20043;-85
2021/03/10 06:06:26;;;;;;;42.40;18.10;;;;;;;20.14;12.75;98444.47;5064367;28;20064;-85
2021/03/10 06:08:52;;;;;;;41.80;18.25;;;;;;;20.09;12.87;98440.06;5070788;28;20079;-85
2021/03/10 06:11:23;;;;;;;38.38;17.05;;;;;;;20.21;12.76;98439.66;5069251;28;20037;-85
2021/03/10 06:13:49;;;;;;;;;;;;;;;20.20;13.11;98443.66;5067217;28;20047;-84
2021/03/10 06:16:26;;;;;;;41.33;19.13;;;;;;;20.51;12.62;98436.47;5068377;28;19919;-84
2021/03/10 06:19:03;;;;;;;43.60;19.83;;;;;;;20.49;12.77;98441.66;5071805;28;20040;-83
2021/03/10 06:21:29;;;;;;;46.35;19.65;;;;;;;20.71;12.81;98448.78;5071891;28;20040;-84
2021/03/10 06:24:02;;;;;;;45.95;20.67;;;;;;;20.84;12.41;98451.94;5071233;28;20025;-83
2021/03/10 06:26:33;;;;;;;51.05;21.67;;;;;;;21.07;12.33;98457.88;5071038;28;20040;-83
2021/03/10 06:29:01;;;;;;;53.45;21.92;;;;;;;21.11;12.65;98465.03;5071560;28;20064;-85
2021/03/10 06:31:34;;;;;;;56.45;25.25;;;;;;;20.87;13.13;98465.88;5072771;28;20447;-86
2021/03/10 06:34:11;;;;;;;59.20;24.85;;;;;;;20.70;13.61;98474.31;5069955;28;20033;-86
2021/03/10 06:36:39;;;;;;;56.35;24.95;;;;;;;20.55;13.58;98465.16;5069642;28;20052;-86
2021/03/10 06:39:07;;;;;;;54.80;24.23;;;;;;;20.51;13.64;98475.53;5069331;28;20043;-83
2021/03/10 06:41:35;;;;;;;49.47;22.25;;;;;;;20.82;13.35;98473.88;5066092;28;20116;-82
2021/03/10 06:44:13;;;;;;;39.53;17.63;;;;;;;21.06;13.27;98476.63;5067232;28;20029;-82
2021/03/10 06:46:53;;;;;;;40.25;18.50;;;;;;;21.32;12.96;98481.69;5069426;28;20044;-82
2021/03/10 06:49:19;;;;;;;46.40;20.92;;;;;;;21.48;12.90;98480.41;5065285;28;20040;-82
2021/03/10 06:51:56;;;;;;;63.28;27.65;;;;;;;20.96;13.61;98480.19;5071219;28;20024;-83
2021/03/10 06:54:23;;;;;;;57.33;23.60;;;;;;;20.91;13.49;98486.19;5070369;28;20064;-83
2021/03/10 06:57:08;;;;;;;50.38;22.83;;;;;;;20.61;13.88;98486.66;5059636;28;20037;-83
2021/03/10 06:59:49;;;;;;;51.85;22.60;;;;;;;20.20;14.56;98484.66;5062296;28;20045;-83
2021/03/10 07:02:27;;;;;;;44.63;20.48;;;;;;;20.01;14.42;98497.00;5065443;28;20056;-83
2021/03/10 07:04:58;;;;;;;48.03;21.23;;;;;;;20.48;13.98;98491.06;5070128;28;20108;-83
2021/03/10 07:07:25;;;;;;;47.35;20.88;;;;;;;20.67;14.56;98487.84;5060128;28;20108;-83
2021/03/10 07:09:52;;;;;;;37.53;17.17;;;;;;;21.40;13.35;98490.81;5068929;28;20107;-83
2021/03/10 07:12:22;;;;;;;40.45;19.67;;;;;;;21.40;13.10;98490.81;5075285;28;20032;-83
2021/03/10 07:14:49;;;;;;;46.08;18.70;;;;;;;21.70;12.95;98498.69;5068692;28;20044;-83
2021/03/10 07:17:18;;;;;;;48.70;20.20;;;;;;;21.61;13.22;98498.31;5073328;28;20039;-83
2021/03/10 07:19:45;;;;;;;40.88;19.52;;;;;;;21.39;13.26;98500.41;5068500;28;20141;-83
2021/03/10 07:22:17;;;;;;;40.42;16.63;;;;;;;21.78;13.11;98489.84;5073468;28;20028;-83
2021/03/10 07:25:01;;;;;;;39.75;17.92;;;;;;;21.50;13.06;98494.78;5067329;28;20041;-83
2021/03/10 07:27:43;;;;;;;42.88;18.02;;;;;;;21.97;12.85;98496.94;5070156;28;20036;-83
2021/03/10 07:30:11;;;;;;;40.00;18.40;;;;;;;20.99;13.62;98495.34;5055718;28;20488;-83
2021/03/10 07:32:38;;;;;;;37.20;17.25;;;;;;;21.40;13.84;98504.78;5072627;28;20403;-83
2021/03/10 07:35:09;;;;;;;38.65;16.45;;;;;;;21.72;13.45;98513.84;5074017;28;20020;-83
2021/03/10 07:37:37;;;;;;;34.75;15.85;;;;;;;22.31;13.06;98508.28;5073548;28;20036;-83
2021/03/10 07:40:12;;;;;;;35.97;17.42;;;;;;;22.48;12.69;98510.91;5074466;28;20028;-83
2021/03/10 07:42:56;;;;;;;41.65;18.98;;;;;;;22.36;12.99;98514.22;5073011;28;20492;-83
2021/03/10 07:45:25;;;;;;;34.42;14.35;;;;;;;22.96;12.52;98516.50;5062962;28;20048;-83
2021/03/10 07:47:57;;;;;;;32.50;14.85;;;;;;;23.26;12.04;98515.75;5073433;28;20492;-83
2021/03/10 07:50:38;;;;;;;34.25;14.60;;;;;;;23.21;12.25;98505.00;5072739;28;20542;-83
2021/03/10 07:53:04;;;;;;;37.33;15.73;;;;;;;23.34;12.07;98520.88;5061359;28;20033;-83
2021/03/10 07:55:40;;;;;;;30.23;14.57;;;;;;;22.62;12.31;98519.22;5074354;28;20031;-83
2021/03/10 07:58:06;;;;;;;31.60;13.73;;;;;;;22.98;12.54;98516.88;5071886;28;20483;-84
2021/03/10 08:00:40;;;;;;;32.25;14.93;;;;;;;23.13;11.93;98504.28;5072018;28;20439;-83
2021/03/10 08:03:06;;;;;;;36.58;15.27;;;;;;;22.68;12.82;98513.97;5057630;28;20037;-84
2021/03/10 08:05:34;;;;;;;27.55;11.35;;;;;;;23.09;12.49;98513.94;5073673;28;20045;-83
2021/03/10 08:08:12;;;;;;;24.05;11.07;;;;;;;22.80;12.39;98512.66;5072879;28;20422;-83
2021/03/10 08:10:40;;;;;;;26.27;12.00;;;;;;;22.23;12.72;98506.72;5074011;28;20453;-83
2021/03/10 08:13:22;;;;;;;29.00;14.43;;;;;;;20.06;14.15;98506.97;5068804;28;20082;-84
2021/03/10 08:15:49;;;;;;;26.08;11.23;;;;;;;21.27;13.59;98512.03;5070894;28;20037;-84
2021/03/10 08:18:21;;;;;;;17.33;8.68;;;;;;;20.87;14.08;98513.31;5060870;28;20032;-84
2021/03/10 08:20:48;;;;;;;18.88;9.23;;;;;;;19.46;14.94;98524.34;5064737;28;20036;-84
2021/03/10 08:23:14;;;;;;;21.33;7.68;;;;;;;19.31;15.39;98522.66;5071838;28;20488;-84
2021/03/10 08:25:40;;;;;;;16.08;8.43;;;;;;;20.16;14.00;98517.34;5072478;28;20028;-84
2021/03/10 08:28:16;;;;;;;13.95;7.22;;;;;;;21.20;13.24;98512.06;5071539;28;20535;-84
2021/03/10 08:30:43;;;;;;;17.27;8.10;;;;;;;21.52;13.02;98507.13;5055154;28;20040;-84
2021/03/10 08:33:10;;;;;;;7.43;4.45;;;;;;;21.57;12.48;98523.47;5068768;28;20037;-84
2021/03/10 08:35:37;;;;;;;8.88;3.67;;;;;;;21.34;12.43;98521.19;5072329;28;20416;-84
2021/03/10 08:38:05;;;;;;;7.65;3.40;;;;;;;21.15;12.36;98515.25;5068029;28;20453;-84
2021/03/10 08:40:34;;;;;;;6.60;3.38;;;;;;;21.45;12.37;98514.78;5066105;28;20492;-84
2021/03/10 08:43:02;;;;;;;5.47;3.08;;;;;;;21.37;11.55;98516.78;5073095;28;20037;-84
2021/03/10 08:45:29;;;;;;;7.50;2.63;;;;;;;20.83;12.14;98512.53;5071935;28;20039;-84
2021/03/10 08:48:10;;;;;;;8.63;3.38;;;;;;;20.44;11.01;98518.16;5071321;28;20056;-84
2021/03/10 08:50:47;;;;;;;3.53;2.40;;;;;;;20.50;11.78;98515.75;5073173;28;20116;-84
2021/03/10 08:53:14;;;;;;;15.18;9.15;;;;;;;19.29;13.90;98533.38;5068844;28;20040;-84
2021/03/10 08:55:42;;;;;;;6.57;3.05;;;;;;;20.73;12.80;98524.50;5073878;28;20099;-85
2021/03/10 08:58:14;;;;;;;10.23;5.00;;;;;;;20.02;12.99;98522.88;5073749;28;20040;-85
2021/03/10 09:00:41;;;;;;;10.35;4.40;;;;;;;21.12;12.17;98516.88;5072564;28;20476;-84
2021/03/10 09:03:15;;;;;;;8.52;4.13;;;;;;;21.26;11.70;98521.63;5071009;28;20024;-84
2021/03/10 09:05:43;;;;;;;7.35;3.42;;;;;;;21.97;11.16;98516.50;5057539;28;20387;-83
2021/03/10 09:08:12;;;;;;;8.95;4.63;;;;;;;19.36;13.89;98532.63;5071134;28;20028;-84
2021/03/10 09:10:44;;;;;;;8.90;4.47;;;;;;;17.78;13.64;98527.44;5071141;28;20113;-84
2021/03/10 09:13:12;;;;;;;5.45;3.10;;;;;;;17.42;14.67;98528.19;5073629;28;20035;-84
2021/03/10 09:15:39;;;;;;;5.50;3.05;;;;;;;18.50;13.74;98524.94;5073614;28;20055;-84
2021/03/10 09:18:07;;;;;;;4.07;2.85;;;;;;;20.91;12.21;98516.13;5071164;28;20519;-84
2021/03/10 09:20:38;;;;;;;5.25;3.28;;;;;;;21.44;11.29;98525.16;5068533;28;20052;-83
2021/03/10 09:23:05;;;;;;;6.57;3.50;;;;;;;19.02;12.45;98520.94;5055017;28;20060;-84
2021/03/10 09:25:33;;;;;;;5.40;3.38;;;;;;;20.06;12.71;98521.69;5063249;28;20036;-83
2021/03/10 09:28:14;;;;;;;4.40;3.20;;;;;;;20.91;11.15;98518.91;5071941;28;20086;-83
2021/03/10 09:30:42;;;;;;;6.67;3.50;;;;;;;20.39;11.99;98520.56;5067656;28;20558;-84
2021/03/10 09:33:28;;;;;;;7.47;3.22;;;;;;;21.76;10.89;98513.81;5073090;28;20286;-84
2021/03/10 09:35:57;;;;;;;4.95;2.70;;;;;;;22.39;11.21;98519.00;5053823;28;20078;-84
2021/03/10 09:38:24;;;;;;;8.88;5.38;;;;;;;19.59;13.00;98516.41;5055998;28;20029;-83
2021/03/10 09:40:57;;;;;;;10.13;3.95;;;;;;;20.51;12.20;98512.56;5052096;28;20455;-83
2021/03/10 09:43:27;;;;;;;7.82;4.55;;;;;;;20.18;12.05;98512.94;5072434;28;20107;-83
2021/03/10 09:46:00;;;;;;;11.38;6.43;;;;;;;16.82;14.32;98517.13;5055158;28;20037;-83
2021/03/10 09:48:36;;;;;;;9.95;4.47;;;;;;;18.85;13.91;98516.84;5067225;28;20033;-84
2021/03/10 09:51:15;;;;;;;7.63;4.25;;;;;;;19.71;11.89;98514.06;5072624;28;20064;-83
2021/03/10 09:53:43;;;;;;;11.88;5.60;;;;;;;17.04;14.45;98519.00;5053225;28;20497;-83
2021/03/10 09:56:17;;;;;;;11.73;5.68;;;;;;;13.32;18.70;98530.13;5053504;28;20032;-84
2021/03/10 09:58:50;;;;;;;9.38;4.72;;;;;;;13.22;17.31;98538.91;5063393;28;20045;-84
2021/03/10 10:01:17;;;;;;;13.13;6.45;;;;;;;13.24;17.57;98539.34;5057736;28;20068;-84
2021/03/10 10:03:44;;;;;;;12.93;5.75;;;;;;;12.19;18.63;98536.84;5052561;28;20040;-83
2021/03/10 10:06:12;;;;;;;8.32;5.38;;;;;;;13.62;17.49;98542.41;5059520;28;20032;-84
2021/03/10 10:08:38;;;;;;;8.25;4.35;;;;;;;17.06;13.90;98530.50;5062250;28;20037;-84
2021/03/10 10:11:11;;;;;;;7.43;3.80;;;;;;;19.83;11.80;98518.47;5067996;28;20480;-84
2021/03/10 10:13:40;;;;;;;7.85;4.00;;;;;;;21.05;11.39;98516.13;5072961;28;20056;-83
2021/03/10 10:16:08;;;;;;;6.38;4.35;;;;;;;19.79;13.01;98517.69;5072790;28;20029;-83
2021/03/10 10:18:34;;;;;;;9.85;5.78;;;;;;;18.40;12.97;98526.44;5072033;28;20504;-83
2021/03/10 10:21:00;;;;;;;8.02;3.90;;;;;;;17.86;13.53;98518.81;5060429;28;20422;-83
2021/03/10 10:23:26;;;;;;;6.70;3.85;;;;;;;16.83;14.14;98534.53;5060047;28;20066;-83
2021/03/10 10:25:52;;;;;;;8.07;4.68;;;;;;;15.21;15.51;98535.19;5072640;28;20029;-82
2021/03/10 10:28:18;;;;;;;6.40;3.92;;;;;;;16.66;13.62;98518.47;5072669;28;20024;-83
2021/03/10 10:30:44;;;;;;;8.52;4.45;;;;;;;16.01;16.79;98518.56;5068284;28;20389;-83
2021/03/10 10:33:10;;;;;;;8.40;4.40;;;;;;;16.39;14.12;98523.16;5068877;28;20064;-82
2021/03/10 10:35:36;;;;;;;10.95;3.88;;;;;;;15.95;14.30;98514.50;5059092;28;20037;-82
2021/03/10 10:38:03;;;;;;;5.30;3.28;;;;;;;19.20;12.47;98511.47;5068624;28;20115;-82
2021/03/10 10:40:29;;;;;;;9.07;5.90;;;;;;;18.70;13.03;98512.38;5062909;28;20036;-82
2021/03/10 10:42:55;;;;;;;6.60;3.35;;;;;;;20.33;12.07;98509.00;5071977;28;20040;-82
2021/03/10 10:45:21;;;;;;;10.07;4.55;;;;;;;16.82;13.75;98522.66;5072329;28;20028;-82
2021/03/10 10:47:47;;;;;;;7.97;3.78;;;;;;;17.35;13.64;98520.59;5072218;28;20115;-82
2021/03/10 10:50:14;;;;;;;5.57;2.85;;;;;;;19.93;12.73;98514.88;5071719;28;20032;-82
2021/03/10 10:52:41;;;;;;;5.85;3.05;;;;;;;21.35;11.29;98519.97;5072221;28;20027;-82
2021/03/10 10:55:13;;;;;;;10.70;6.05;;;;;;;14.92;15.38;98532.97;5069874;28;20039;-83
2021/03/10 10:57:39;;;;;;;10.32;4.90;;;;;;;13.34;17.17;98521.50;5046879;28;20048;-82
2021/03/10 11:00:26;;;;;;;13.18;5.80;;;;;;;13.40;16.51;98523.66;5071436;28;20052;-84
2021/03/10 11:02:53;;;;;;;12.32;5.65;;;;;;;13.52;16.18;98528.31;5054397;28;20147;-81
2021/03/10 11:05:19;;;;;;;12.75;5.95;;;;;;;13.25;16.63;98527.19;5056437;28;20056;-82
2021/03/10 11:07:45;;;;;;;9.95;5.35;;;;;;;12.18;18.16;98521.50;5056283;28;20395;-82
2021/03/10 11:10:11;;;;;;;11.20;5.80;;;;;;;13.12;16.82;98529.16;5060716;28;20032;-82
2021/03/10 11:12:38;;;;;;;6.82;4.10;;;;;;;18.33;13.26;98508.91;5074808;28;20036;-82
2021/03/10 11:15:05;;;;;;;12.23;6.07;;;;;;;18.29;12.09;98503.31;5062213;28;20029;-82
2021/03/10 11:17:31;;;;;;;12.15;5.90;;;;;;;16.27;13.93;98513.06;5068304;28;20516;-82
2021/03/10 11:19:57;;;;;;;11.70;5.85;;;;;;;12.71;16.80;98528.69;5069523;28;20111;-82
2021/03/10 11:22:23;;;;;;;10.57;5.72;;;;;;;13.72;16.28;98527.28;5075307;28;20031;-82
2021/03/10 11:24:49;;;;;;;8.15;4.60;;;;;;;15.09;15.10;98521.50;5073651;28;20037;-81
2021/03/10 11:27:20;;;;;;;11.40;5.30;;;;;;;17.13;13.20;98507.59;5056205;28;20507;-82
2021/03/10 11:29:46;;;;;;;11.07;5.68;;;;;;;17.15;13.40;98517.16;5075591;28;20040;-82